sensor_id;sensor_type;location;lat;lon;timestamp;P1;P2;P0
63707;PMS5003;67643;-34.198;22.084;2023-04-06T02:05:59;3;3;
63707;PMS5003;67643;-34.198;22.084;2023-04-06T02:08:28;3;1;
63707;PMS5003;67643;-34.198;22.084;2023-04-06T02:10:56;7;5;
63707;PMS5003;67643;-34.198;22.084;2023-04-06T02:13:24;3;2;
63707;PMS5003;67643;-34.198;22.084;2023-04-06T02:15:52;4;4;
63707;PMS5003;67643;-34.198;22.084;2023-04-06T02:18:21;3;2;
63707;PMS5003;67643;-34.198;22.084;2023-04-06T02:20:49;3;2;
63707;PMS5003;67643;-34.198;22.084;2023-04-06T02:23:18;3;2;
63707;PMS5003;67643;-34.198;22.084;2023-04-06T02:25:46;4;4;
63707;PMS5003;67643;-34.198;22.084;2023-04-06T02:28:15;4;2;
63707;PMS5003;67643;-34.198;22.084;2023-04-06T02:30:43;3;3;
63707;PMS5003;67643;-34.198;22.084;2023-04-06T02:33:11;3;3;
63707;PMS5003;67643;-34.198;22.084;2023-04-06T02:35:40;3;3;
63707;PMS5003;67643;-34.198;22.084;2023-04-06T02:38:08;4;4;
63707;PMS5003;67643;-34.198;22.084;2023-04-06T02:40:37;3;2;
63707;PMS5003;67643;-34.198;22.084;2023-04-06T02:43:05;2;2;
63707;PMS5003;67643;-34.198;22.084;2023-04-06T02:45:34;2;2;
63707;PMS5003;67643;-34.198;22.084;2023-04-06T02:48:03;6;1;
63707;PMS5003;67643;-34.198;22.084;2023-04-06T02:50:32;1;1;
63707;PMS5003;67643;-34.198;22.084;2023-04-06T02:53:01;2;2;
63707;PMS5003;67643;-34.198;22.084;2023-04-06T02:55:29;4;3;
63707;PMS5003;67643;-34.198;22.084;2023-04-06T02:57:57;2;0;
63707;PMS5003;67643;-34.198;22.084;2023-04-06T03:00:26;5;3;
63707;PMS5003;67643;-34.198;22.084;2023-04-06T03:02:54;1;1;
63707;PMS5003;67643;-34.198;22.084;2023-04-06T03:05:23;3;2;
63707;PMS5003;67643;-34.198;22.084;2023-04-06T03:07:52;2;1;
63707;PMS5003;67643;-34.198;22.084;2023-04-06T03:10:20;2;2;
63707;PMS5003;67643;-34.198;22.084;2023-04-06T03:12:49;1;1;
63707;PMS5003;67643;-34.198;22.084;2023-04-06T03:15:18;2;2;
63707;PMS5003;67643;-34.198;22.084;2023-04-06T03:17:46;2;1;
63707;PMS5003;67643;-34.198;22.084;2023-04-06T03:20:14;2;2;
63707;PMS5003;67643;-34.198;22.084;2023-04-06T03:22:43;3;3;
63707;PMS5003;67643;-34.198;22.084;2023-04-06T03:25:11;1;1;
63707;PMS5003;67643;-34.198;22.084;2023-04-06T03:27:40;3;3;
63707;PMS5003;67643;-34.198;22.084;2023-04-06T03:30:08;0;0;
63707;PMS5003;67643;-34.198;22.084;2023-04-06T03:32:38;2;1;
63707;PMS5003;67643;-34.198;22.084;2023-04-06T03:35:11;5;4;
63707;PMS5003;67643;-34.198;22.084;2023-04-06T03:37:39;1;1;
63707;PMS5003;67643;-34.198;22.084;2023-04-06T03:40:08;3;1;
63707;PMS5003;67643;-34.198;22.084;2023-04-06T03:42:37;0;0;
63707;PMS5003;67643;-34.198;22.084;2023-04-06T03:45:06;1;1;
63707;PMS5003;67643;-34.198;22.084;2023-04-06T03:47:35;2;0;
63707;PMS5003;67643;-34.198;22.084;2023-04-06T03:50:04;1;1;
63707;PMS5003;67643;-34.198;22.084;2023-04-06T03:52:34;0;0;
63707;PMS5003;67643;-34.198;22.084;2023-04-06T03:55:02;1;1;
63707;PMS5003;67643;-34.198;22.084;2023-04-06T03:57:32;2;1;
63707;PMS5003;67643;-34.198;22.084;2023-04-06T04:00:00;1;1;
63707;PMS5003;67643;-34.198;22.084;2023-04-06T04:02:29;1;1;
63707;PMS5003;67643;-34.198;22.084;2023-04-06T04:04:57;0;0;
63707;PMS5003;67643;-34.198;22.084;2023-04-06T04:07:26;2;1;
63707;PMS5003;67643;-34.198;22.084;2023-04-06T04:09:55;0;0;
63707;PMS5003;67643;-34.198;22.084;2023-04-06T04:12:23;0;0;
63707;PMS5003;67643;-34.198;22.084;2023-04-06T04:14:52;0;0;
63707;PMS5003;67643;-34.198;22.084;2023-04-06T04:17:21;3;2;
63707;PMS5003;67643;-34.198;22.084;2023-04-06T04:19:49;3;1;
63707;PMS5003;67643;-34.198;22.084;2023-04-06T04:22:17;0;0;
63707;PMS5003;67643;-34.198;22.084;2023-04-06T04:24:46;1;1;
63707;PMS5003;67643;-34.198;22.084;2023-04-06T04:27:14;1;1;
63707;PMS5003;67643;-34.198;22.084;2023-04-06T04:29:43;1;1;
63707;PMS5003;67643;-34.198;22.084;2023-04-06T04:32:11;1;1;
63707;PMS5003;67643;-34.198;22.084;2023-04-06T04:34:40;2;1;
63707;PMS5003;67643;-34.198;22.084;2023-04-06T04:37:08;0;0;
63707;PMS5003;67643;-34.198;22.084;2023-04-06T04:39:37;0;0;
63707;PMS5003;67643;-34.198;22.084;2023-04-06T04:42:05;0;0;
63707;PMS5003;67643;-34.198;22.084;2023-04-06T04:44:34;0;0;
63707;PMS5003;67643;-34.198;22.084;2023-04-06T04:47:02;1;1;
63707;PMS5003;67643;-34.198;22.084;2023-04-06T04:49:31;0;0;
63707;PMS5003;67643;-34.198;22.084;2023-04-06T04:52:00;3;0;
63707;PMS5003;67643;-34.198;22.084;2023-04-06T04:54:28;1;1;
63707;PMS5003;67643;-34.198;22.084;2023-04-06T04:56:57;0;0;
63707;PMS5003;67643;-34.198;22.084;2023-04-06T04:59:25;0;0;
63707;PMS5003;67643;-34.198;22.084;2023-04-06T05:01:54;1;1;
63707;PMS5003;67643;-34.198;22.084;2023-04-06T05:04:22;0;0;
63707;PMS5003;67643;-34.198;22.084;2023-04-06T05:06:51;0;0;
63707;PMS5003;67643;-34.198;22.084;2023-04-06T05:09:31;1;1;
63707;PMS5003;67643;-34.198;22.084;2023-04-06T05:12:00;1;1;
63707;PMS5003;67643;-34.198;22.084;2023-04-06T05:14:29;96;76;
63707;PMS5003;67643;-34.198;22.084;2023-04-06T05:16:57;176;152;
63707;PMS5003;67643;-34.198;22.084;2023-04-06T05:19:26;201;177;
63707;PMS5003;67643;-34.198;22.084;2023-04-06T05:21:54;253;211;
63707;PMS5003;67643;-34.198;22.084;2023-04-06T05:24:23;214;176;
63707;PMS5003;67643;-34.198;22.084;2023-04-06T05:26:52;271;227;
63707;PMS5003;67643;-34.198;22.084;2023-04-06T05:29:21;249;211;
63707;PMS5003;67643;-34.198;22.084;2023-04-06T05:31:50;174;147;
63707;PMS5003;67643;-34.198;22.084;2023-04-06T05:34:19;239;198;
63707;PMS5003;67643;-34.198;22.084;2023-04-06T05:36:47;221;189;
63707;PMS5003;67643;-34.198;22.084;2023-04-06T05:39:16;201;169;
63707;PMS5003;67643;-34.198;22.084;2023-04-06T05:41:44;210;178;
63707;PMS5003;67643;-34.198;22.084;2023-04-06T05:44:13;209;173;
63707;PMS5003;67643;-34.198;22.084;2023-04-06T05:46:41;209;181;
63707;PMS5003;67643;-34.198;22.084;2023-04-06T05:49:09;228;193;
63707;PMS5003;67643;-34.198;22.084;2023-04-06T05:51:38;281;235;
63707;PMS5003;67643;-34.198;22.084;2023-04-06T05:54:06;286;229;
63707;PMS5003;67643;-34.198;22.084;2023-04-06T05:56:35;243;205;
63707;PMS5003;67643;-34.198;22.084;2023-04-06T05:59:04;189;154;
63707;PMS5003;67643;-34.198;22.084;2023-04-06T06:01:32;217;182;
63707;PMS5003;67643;-34.198;22.084;2023-04-06T06:04:01;180;147;
63707;PMS5003;67643;-34.198;22.084;2023-04-06T06:06:30;207;172;
63707;PMS5003;67643;-34.198;22.084;2023-04-06T06:08:58;204;171;
63707;PMS5003;67643;-34.198;22.084;2023-04-06T06:11:27;193;165;
63707;PMS5003;67643;-34.198;22.084;2023-04-06T06:13:56;182;150;
63707;PMS5003;67643;-34.198;22.084;2023-04-06T06:16:24;187;151;
63707;PMS5003;67643;-34.198;22.084;2023-04-06T06:18:53;169;140;
63707;PMS5003;67643;-34.198;22.084;2023-04-06T06:21:21;180;141;
63707;PMS5003;67643;-34.198;22.084;2023-04-06T06:23:49;145;120;
63707;PMS5003;67643;-34.198;22.084;2023-04-06T06:26:18;123;102;
63707;PMS5003;67643;-34.198;22.084;2023-04-06T06:28:47;108;90;
63707;PMS5003;67643;-34.198;22.084;2023-04-06T06:31:15;101;87;
63707;PMS5003;67643;-34.198;22.084;2023-04-06T06:33:44;96;75;
63707;PMS5003;67643;-34.198;22.084;2023-04-06T06:36:12;97;78;
63707;PMS5003;67643;-34.198;22.084;2023-04-06T06:38:41;82;76;
63707;PMS5003;67643;-34.198;22.084;2023-04-06T06:41:09;82;66;
63707;PMS5003;67643;-34.198;22.084;2023-04-06T06:43:39;70;60;
63707;PMS5003;67643;-34.198;22.084;2023-04-06T06:46:07;75;60;
63707;PMS5003;67643;-34.198;22.084;2023-04-06T06:48:36;65;57;
63707;PMS5003;67643;-34.198;22.084;2023-04-06T06:51:04;91;74;
63707;PMS5003;67643;-34.198;22.084;2023-04-06T06:53:34;102;87;
63707;PMS5003;67643;-34.198;22.084;2023-04-06T06:56:02;99;83;
63707;PMS5003;67643;-34.198;22.084;2023-04-06T06:58:31;101;75;
63707;PMS5003;67643;-34.198;22.084;2023-04-06T07:01:00;95;78;
63707;PMS5003;67643;-34.198;22.084;2023-04-06T07:03:28;78;70;
63707;PMS5003;67643;-34.198;22.084;2023-04-06T07:05:56;82;65;
63707;PMS5003;67643;-34.198;22.084;2023-04-06T07:08:26;69;55;
63707;PMS5003;67643;-34.198;22.084;2023-04-06T07:10:54;64;52;
63707;PMS5003;67643;-34.198;22.084;2023-04-06T07:13:23;75;57;
63707;PMS5003;67643;-34.198;22.084;2023-04-06T07:15:52;72;52;
63707;PMS5003;67643;-34.198;22.084;2023-04-06T07:18:21;68;49;
63707;PMS5003;67643;-34.198;22.084;2023-04-06T07:20:49;61;40;
63707;PMS5003;67643;-34.198;22.084;2023-04-06T07:23:18;63;47;
63707;PMS5003;67643;-34.198;22.084;2023-04-06T07:25:47;62;41;
63707;PMS5003;67643;-34.198;22.084;2023-04-06T07:28:15;53;41;
63707;PMS5003;67643;-34.198;22.084;2023-04-06T07:30:43;51;38;
63707;PMS5003;67643;-34.198;22.084;2023-04-06T07:33:12;53;44;
63707;PMS5003;67643;-34.198;22.084;2023-04-06T07:35:41;43;37;
63707;PMS5003;67643;-34.198;22.084;2023-04-06T07:38:09;59;43;
63707;PMS5003;67643;-34.198;22.084;2023-04-06T07:40:38;58;40;
63707;PMS5003;67643;-34.198;22.084;2023-04-06T07:43:06;54;43;
63707;PMS5003;67643;-34.198;22.084;2023-04-06T07:45:34;51;37;
63707;PMS5003;67643;-34.198;22.084;2023-04-06T07:48:03;55;39;
63707;PMS5003;67643;-34.198;22.084;2023-04-06T07:50:31;47;36;
63707;PMS5003;67643;-34.198;22.084;2023-04-06T07:53:00;62;47;
63707;PMS5003;67643;-34.198;22.084;2023-04-06T07:55:29;47;40;
63707;PMS5003;67643;-34.198;22.084;2023-04-06T07:57:57;60;44;
63707;PMS5003;67643;-34.198;22.084;2023-04-06T08:00:26;68;49;
63707;PMS5003;67643;-34.198;22.084;2023-04-06T08:02:54;57;45;
63707;PMS5003;67643;-34.198;22.084;2023-04-06T10:13:51;23;15;
63707;PMS5003;67643;-34.198;22.084;2023-04-06T10:16:21;20;17;
63707;PMS5003;67643;-34.198;22.084;2023-04-06T10:18:52;24;13;
63707;PMS5003;67643;-34.198;22.084;2023-04-06T10:21:25;15;14;
63707;PMS5003;67643;-34.198;22.084;2023-04-06T10:23:58;21;15;
63707;PMS5003;67643;-34.198;22.084;2023-04-06T10:26:28;22;16;
63707;PMS5003;67643;-34.198;22.084;2023-04-06T10:29:01;14;9;
63707;PMS5003;67643;-34.198;22.084;2023-04-06T10:55:05;20;14;
63707;PMS5003;67643;-34.198;22.084;2023-04-06T10:57:35;22;17;
63707;PMS5003;67643;-34.198;22.084;2023-04-06T11:00:04;20;15;
63707;PMS5003;67643;-34.198;22.084;2023-04-06T11:02:34;12;10;
63707;PMS5003;67643;-34.198;22.084;2023-04-06T11:05:03;14;12;
63707;PMS5003;67643;-34.198;22.084;2023-04-06T11:07:32;17;10;
63707;PMS5003;67643;-34.198;22.084;2023-04-06T11:10:01;11;7;
63707;PMS5003;67643;-34.198;22.084;2023-04-06T11:12:30;11;10;
63707;PMS5003;67643;-34.198;22.084;2023-04-06T11:14:59;17;10;
63707;PMS5003;67643;-34.198;22.084;2023-04-06T11:17:30;15;9;
63707;PMS5003;67643;-34.198;22.084;2023-04-06T11:20:01;13;9;
63707;PMS5003;67643;-34.198;22.084;2023-04-06T11:22:31;10;9;
63707;PMS5003;67643;-34.198;22.084;2023-04-06T11:25:08;11;9;
63707;PMS5003;67643;-34.198;22.084;2023-04-06T11:27:37;12;7;
63707;PMS5003;67643;-34.198;22.084;2023-04-06T11:30:07;11;10;
63707;PMS5003;67643;-34.198;22.084;2023-04-06T11:32:40;10;8;
63707;PMS5003;67643;-34.198;22.084;2023-04-06T11:35:10;18;10;
63707;PMS5003;67643;-34.198;22.084;2023-04-06T11:37:46;18;11;
63707;PMS5003;67643;-34.198;22.084;2023-04-06T11:40:19;14;10;
63707;PMS5003;67643;-34.198;22.084;2023-04-06T11:42:52;20;15;
63707;PMS5003;67643;-34.198;22.084;2023-04-06T11:45:21;20;10;
63707;PMS5003;67643;-34.198;22.084;2023-04-06T11:47:55;13;11;
63707;PMS5003;67643;-34.198;22.084;2023-04-06T11:50:25;15;10;
63707;PMS5003;67643;-34.198;22.084;2023-04-06T11:52:59;14;11;
63707;PMS5003;67643;-34.198;22.084;2023-04-06T11:55:36;19;15;
63707;PMS5003;67643;-34.198;22.084;2023-04-06T11:58:04;19;11;
63707;PMS5003;67643;-34.198;22.084;2023-04-06T12:00:33;19;13;
63707;PMS5003;67643;-34.198;22.084;2023-04-06T12:03:02;26;19;
63707;PMS5003;67643;-34.198;22.084;2023-04-06T12:05:30;19;12;
63707;PMS5003;67643;-34.198;22.084;2023-04-06T12:08:01;12;12;
63707;PMS5003;67643;-34.198;22.084;2023-04-06T12:10:30;30;15;
63707;PMS5003;67643;-34.198;22.084;2023-04-06T12:12:59;18;15;
63707;PMS5003;67643;-34.198;22.084;2023-04-06T12:15:28;19;14;
63707;PMS5003;67643;-34.198;22.084;2023-04-06T12:17:57;26;17;
63707;PMS5003;67643;-34.198;22.084;2023-04-06T12:20:25;20;13;
63707;PMS5003;67643;-34.198;22.084;2023-04-06T12:22:54;24;17;
63707;PMS5003;67643;-34.198;22.084;2023-04-06T12:25:23;16;13;
63707;PMS5003;67643;-34.198;22.084;2023-04-06T12:27:52;14;14;
63707;PMS5003;67643;-34.198;22.084;2023-04-06T12:30:21;14;12;
63707;PMS5003;67643;-34.198;22.084;2023-04-06T12:32:50;21;13;
63707;PMS5003;67643;-34.198;22.084;2023-04-06T12:35:18;16;12;
63707;PMS5003;67643;-34.198;22.084;2023-04-06T12:37:47;16;10;
63707;PMS5003;67643;-34.198;22.084;2023-04-06T12:40:15;14;11;
63707;PMS5003;67643;-34.198;22.084;2023-04-06T12:42:44;14;8;
63707;PMS5003;67643;-34.198;22.084;2023-04-06T12:45:13;14;10;
63707;PMS5003;67643;-34.198;22.084;2023-04-06T12:47:41;14;9;
63707;PMS5003;67643;-34.198;22.084;2023-04-06T12:50:10;13;9;
63707;PMS5003;67643;-34.198;22.084;2023-04-06T12:52:38;15;10;
63707;PMS5003;67643;-34.198;22.084;2023-04-06T12:55:07;11;10;
63707;PMS5003;67643;-34.198;22.084;2023-04-06T12:57:36;11;9;
63707;PMS5003;67643;-34.198;22.084;2023-04-06T13:00:05;9;8;
63707;PMS5003;67643;-34.198;22.084;2023-04-06T13:02:34;10;9;
63707;PMS5003;67643;-34.198;22.084;2023-04-06T13:05:03;14;11;
63707;PMS5003;67643;-34.198;22.084;2023-04-06T13:07:32;12;10;
63707;PMS5003;67643;-34.198;22.084;2023-04-06T13:10:00;12;11;
63707;PMS5003;67643;-34.198;22.084;2023-04-06T13:12:29;10;7;
63707;PMS5003;67643;-34.198;22.084;2023-04-06T13:14:58;14;11;
63707;PMS5003;67643;-34.198;22.084;2023-04-06T13:17:27;18;12;
63707;PMS5003;67643;-34.198;22.084;2023-04-06T13:19:56;18;11;
63707;PMS5003;67643;-34.198;22.084;2023-04-06T13:22:25;13;11;
63707;PMS5003;67643;-34.198;22.084;2023-04-06T13:24:54;17;15;
63707;PMS5003;67643;-34.198;22.084;2023-04-06T13:27:23;12;9;
63707;PMS5003;67643;-34.198;22.084;2023-04-06T13:29:52;13;7;
63707;PMS5003;67643;-34.198;22.084;2023-04-06T13:32:21;11;10;
63707;PMS5003;67643;-34.198;22.084;2023-04-06T13:34:49;11;8;
63707;PMS5003;67643;-34.198;22.084;2023-04-06T13:37:20;9;7;
63707;PMS5003;67643;-34.198;22.084;2023-04-06T13:39:49;9;7;
63707;PMS5003;67643;-34.198;22.084;2023-04-06T13:42:18;10;5;
63707;PMS5003;67643;-34.198;22.084;2023-04-06T13:44:46;10;6;
63707;PMS5003;67643;-34.198;22.084;2023-04-06T13:47:14;7;6;
63707;PMS5003;67643;-34.198;22.084;2023-04-06T13:49:43;8;3;
63707;PMS5003;67643;-34.198;22.084;2023-04-06T13:52:11;8;5;
63707;PMS5003;67643;-34.198;22.084;2023-04-06T13:54:39;7;5;
63707;PMS5003;67643;-34.198;22.084;2023-04-06T13:57:08;4;4;
63707;PMS5003;67643;-34.198;22.084;2023-04-06T13:59:37;5;3;
63707;PMS5003;67643;-34.198;22.084;2023-04-06T14:02:07;10;5;
63707;PMS5003;67643;-34.198;22.084;2023-04-06T14:04:36;13;9;
63707;PMS5003;67643;-34.198;22.084;2023-04-06T14:07:05;14;12;
63707;PMS5003;67643;-34.198;22.084;2023-04-06T14:09:34;15;9;
63707;PMS5003;67643;-34.198;22.084;2023-04-06T14:12:02;10;9;
63707;PMS5003;67643;-34.198;22.084;2023-04-06T14:14:31;11;8;
63707;PMS5003;67643;-34.198;22.084;2023-04-06T14:17:00;14;10;
63707;PMS5003;67643;-34.198;22.084;2023-04-06T14:19:28;12;7;
63707;PMS5003;67643;-34.198;22.084;2023-04-06T14:21:56;9;9;
63707;PMS5003;67643;-34.198;22.084;2023-04-06T14:24:25;8;8;
63707;PMS5003;67643;-34.198;22.084;2023-04-06T14:26:54;13;8;
63707;PMS5003;67643;-34.198;22.084;2023-04-06T14:29:23;9;6;
63707;PMS5003;67643;-34.198;22.084;2023-04-06T14:31:52;7;6;
63707;PMS5003;67643;-34.198;22.084;2023-04-06T14:34:20;6;5;
63707;PMS5003;67643;-34.198;22.084;2023-04-06T14:36:49;6;5;
63707;PMS5003;67643;-34.198;22.084;2023-04-06T14:39:17;5;5;
63707;PMS5003;67643;-34.198;22.084;2023-04-06T14:41:45;7;6;
63707;PMS5003;67643;-34.198;22.084;2023-04-06T14:44:14;4;4;
63707;PMS5003;67643;-34.198;22.084;2023-04-06T14:46:43;6;4;
63707;PMS5003;67643;-34.198;22.084;2023-04-06T14:49:12;12;8;
63707;PMS5003;67643;-34.198;22.084;2023-04-06T14:51:41;5;5;
63707;PMS5003;67643;-34.198;22.084;2023-04-06T14:54:10;9;6;
63707;PMS5003;67643;-34.198;22.084;2023-04-06T14:56:38;9;8;
63707;PMS5003;67643;-34.198;22.084;2023-04-06T14:59:07;10;7;
63707;PMS5003;67643;-34.198;22.084;2023-04-06T15:01:35;7;5;
63707;PMS5003;67643;-34.198;22.084;2023-04-06T15:04:04;9;4;
63707;PMS5003;67643;-34.198;22.084;2023-04-06T15:06:34;6;4;
63707;PMS5003;67643;-34.198;22.084;2023-04-06T15:09:02;9;9;
63707;PMS5003;67643;-34.198;22.084;2023-04-06T15:11:31;10;9;
63707;PMS5003;67643;-34.198;22.084;2023-04-06T15:14:00;12;9;
63707;PMS5003;67643;-34.198;22.084;2023-04-06T15:16:29;21;10;
63707;PMS5003;67643;-34.198;22.084;2023-04-06T15:18:57;26;19;
63707;PMS5003;67643;-34.198;22.084;2023-04-06T15:21:26;23;18;
63707;PMS5003;67643;-34.198;22.084;2023-04-06T15:23:55;36;23;
63707;PMS5003;67643;-34.198;22.084;2023-04-06T15:26:23;35;25;
63707;PMS5003;67643;-34.198;22.084;2023-04-06T15:28:53;25;22;
63707;PMS5003;67643;-34.198;22.084;2023-04-06T15:31:22;21;17;
63707;PMS5003;67643;-34.198;22.084;2023-04-06T15:33:51;17;16;
63707;PMS5003;67643;-34.198;22.084;2023-04-06T15:36:23;29;20;
63707;PMS5003;67643;-34.198;22.084;2023-04-06T15:38:52;19;13;
63707;PMS5003;67643;-34.198;22.084;2023-04-06T15:41:20;16;12;
63707;PMS5003;67643;-34.198;22.084;2023-04-06T15:43:49;20;19;
63707;PMS5003;67643;-34.198;22.084;2023-04-06T15:46:18;12;11;
63707;PMS5003;67643;-34.198;22.084;2023-04-06T15:48:47;14;12;
63707;PMS5003;67643;-34.198;22.084;2023-04-06T15:51:16;24;12;
63707;PMS5003;67643;-34.198;22.084;2023-04-06T15:53:45;14;9;
63707;PMS5003;67643;-34.198;22.084;2023-04-06T15:56:13;14;11;
63707;PMS5003;67643;-34.198;22.084;2023-04-06T15:58:42;16;12;
63707;PMS5003;67643;-34.198;22.084;2023-04-06T18:05:19;27;19;
63707;PMS5003;67643;-34.198;22.084;2023-04-06T18:07:48;21;17;
63707;PMS5003;67643;-34.198;22.084;2023-04-06T18:10:17;17;16;
63707;PMS5003;67643;-34.198;22.084;2023-04-06T18:12:46;17;16;
63707;PMS5003;67643;-34.198;22.084;2023-04-06T18:15:14;16;14;
63707;PMS5003;67643;-34.198;22.084;2023-04-06T18:17:43;15;13;
63707;PMS5003;67643;-34.198;22.084;2023-04-06T18:20:12;14;12;
63707;PMS5003;67643;-34.198;22.084;2023-04-06T18:22:41;13;13;
63707;PMS5003;67643;-34.198;22.084;2023-04-06T18:25:09;14;12;
63707;PMS5003;67643;-34.198;22.084;2023-04-06T18:27:37;12;10;
63707;PMS5003;67643;-34.198;22.084;2023-04-06T18:30:06;12;9;
63707;PMS5003;67643;-34.198;22.084;2023-04-06T18:32:35;12;9;
63707;PMS5003;67643;-34.198;22.084;2023-04-06T18:35:04;14;10;
63707;PMS5003;67643;-34.198;22.084;2023-04-06T18:37:33;11;8;
63707;PMS5003;67643;-34.198;22.084;2023-04-06T18:40:02;9;8;
63707;PMS5003;67643;-34.198;22.084;2023-04-06T18:42:31;12;8;
63707;PMS5003;67643;-34.198;22.084;2023-04-06T18:44:59;8;7;
63707;PMS5003;67643;-34.198;22.084;2023-04-06T18:47:27;9;7;
63707;PMS5003;67643;-34.198;22.084;2023-04-06T18:49:56;7;6;
63707;PMS5003;67643;-34.198;22.084;2023-04-06T18:52:25;5;3;
63707;PMS5003;67643;-34.198;22.084;2023-04-06T18:54:54;6;5;
63707;PMS5003;67643;-34.198;22.084;2023-04-06T18:57:22;2;2;
63707;PMS5003;67643;-34.198;22.084;2023-04-06T18:59:51;5;4;
63707;PMS5003;67643;-34.198;22.084;2023-04-06T19:02:19;6;5;
63707;PMS5003;67643;-34.198;22.084;2023-04-06T19:04:47;6;6;
63707;PMS5003;67643;-34.198;22.084;2023-04-06T19:07:17;6;5;
63707;PMS5003;67643;-34.198;22.084;2023-04-06T19:09:45;4;4;
63707;PMS5003;67643;-34.198;22.084;2023-04-06T19:12:14;7;5;
63707;PMS5003;67643;-34.198;22.084;2023-04-06T19:14:43;6;5;
63707;PMS5003;67643;-34.198;22.084;2023-04-06T19:17:11;5;4;
63707;PMS5003;67643;-34.198;22.084;2023-04-06T19:19:40;4;4;
63707;PMS5003;67643;-34.198;22.084;2023-04-06T19:22:09;5;5;
63707;PMS5003;67643;-34.198;22.084;2023-04-06T19:24:37;6;4;
63707;PMS5003;67643;-34.198;22.084;2023-04-06T19:27:06;4;4;
63707;PMS5003;67643;-34.198;22.084;2023-04-06T19:29:35;4;3;
63707;PMS5003;67643;-34.198;22.084;2023-04-06T19:32:03;4;3;
63707;PMS5003;67643;-34.198;22.084;2023-04-06T19:34:32;2;2;
63707;PMS5003;67643;-34.198;22.084;2023-04-06T19:37:01;4;3;
63707;PMS5003;67643;-34.198;22.084;2023-04-06T19:39:29;5;3;
63707;PMS5003;67643;-34.198;22.084;2023-04-06T19:41:58;2;2;
63707;PMS5003;67643;-34.198;22.084;2023-04-06T19:44:26;3;3;
63707;PMS5003;67643;-34.198;22.084;2023-04-06T19:46:55;3;3;
63707;PMS5003;67643;-34.198;22.084;2023-04-06T19:49:24;2;2;
63707;PMS5003;67643;-34.198;22.084;2023-04-06T19:51:53;4;3;
63707;PMS5003;67643;-34.198;22.084;2023-04-06T19:54:21;4;4;
63707;PMS5003;67643;-34.198;22.084;2023-04-06T19:56:50;3;3;
63707;PMS5003;67643;-34.198;22.084;2023-04-06T19:59:18;3;3;
63707;PMS5003;67643;-34.198;22.084;2023-04-06T20:01:46;3;3;
63707;PMS5003;67643;-34.198;22.084;2023-04-06T20:04:15;4;3;
63707;PMS5003;67643;-34.198;22.084;2023-04-06T20:06:43;7;5;
63707;PMS5003;67643;-34.198;22.084;2023-04-06T20:09:13;3;3;
63707;PMS5003;67643;-34.198;22.084;2023-04-06T20:11:42;8;3;
63707;PMS5003;67643;-34.198;22.084;2023-04-06T20:14:11;4;4;
63707;PMS5003;67643;-34.198;22.084;2023-04-06T20:16:40;5;4;
63707;PMS5003;67643;-34.198;22.084;2023-04-06T20:19:08;8;4;
63707;PMS5003;67643;-34.198;22.084;2023-04-06T20:21:37;5;4;
63707;PMS5003;67643;-34.198;22.084;2023-04-06T20:24:06;4;3;
63707;PMS5003;67643;-34.198;22.084;2023-04-06T20:26:34;4;2;
63707;PMS5003;67643;-34.198;22.084;2023-04-06T20:29:03;3;2;
63707;PMS5003;67643;-34.198;22.084;2023-04-06T20:31:31;4;4;
63707;PMS5003;67643;-34.198;22.084;2023-04-06T20:34:00;5;5;
63707;PMS5003;67643;-34.198;22.084;2023-04-06T20:36:29;5;5;
63707;PMS5003;67643;-34.198;22.084;2023-04-06T20:38:58;5;4;
63707;PMS5003;67643;-34.198;22.084;2023-04-06T20:41:26;10;5;
63707;PMS5003;67643;-34.198;22.084;2023-04-06T20:43:55;4;3;
63707;PMS5003;67643;-34.198;22.084;2023-04-06T20:46:23;4;3;
63707;PMS5003;67643;-34.198;22.084;2023-04-06T20:48:52;5;4;
63707;PMS5003;67643;-34.198;22.084;2023-04-06T20:51:20;8;7;
63707;PMS5003;67643;-34.198;22.084;2023-04-06T20:53:49;6;6;
63707;PMS5003;67643;-34.198;22.084;2023-04-06T20:56:17;5;5;
63707;PMS5003;67643;-34.198;22.084;2023-04-06T20:58:45;7;4;
63707;PMS5003;67643;-34.198;22.084;2023-04-06T21:01:14;3;3;
63707;PMS5003;67643;-34.198;22.084;2023-04-06T21:03:43;8;5;
63707;PMS5003;67643;-34.198;22.084;2023-04-06T21:06:12;10;3;
63707;PMS5003;67643;-34.198;22.084;2023-04-06T21:08:41;2;2;
63707;PMS5003;67643;-34.198;22.084;2023-04-06T21:11:09;3;3;
63707;PMS5003;67643;-34.198;22.084;2023-04-06T21:13:39;5;4;
63707;PMS5003;67643;-34.198;22.084;2023-04-06T21:16:07;4;3;
63707;PMS5003;67643;-34.198;22.084;2023-04-06T21:18:36;5;5;
63707;PMS5003;67643;-34.198;22.084;2023-04-06T21:21:06;3;3;
63707;PMS5003;67643;-34.198;22.084;2023-04-06T21:23:35;5;3;
63707;PMS5003;67643;-34.198;22.084;2023-04-06T21:26:03;4;4;
63707;PMS5003;67643;-34.198;22.084;2023-04-06T21:28:31;4;4;
63707;PMS5003;67643;-34.198;22.084;2023-04-06T21:30:59;4;4;
63707;PMS5003;67643;-34.198;22.084;2023-04-06T21:33:33;3;1;
63707;PMS5003;67643;-34.198;22.084;2023-04-06T21:36:05;3;3;
63707;PMS5003;67643;-34.198;22.084;2023-04-06T21:38:35;4;3;
63707;PMS5003;67643;-34.198;22.084;2023-04-06T21:41:03;6;4;
63707;PMS5003;67643;-34.198;22.084;2023-04-06T21:43:31;5;4;
63707;PMS5003;67643;-34.198;22.084;2023-04-06T21:46:00;4;4;
63707;PMS5003;67643;-34.198;22.084;2023-04-06T21:48:28;4;3;
63707;PMS5003;67643;-34.198;22.084;2023-04-06T21:50:57;5;4;
63707;PMS5003;67643;-34.198;22.084;2023-04-06T21:53:25;8;3;
63707;PMS5003;67643;-34.198;22.084;2023-04-06T21:55:54;3;3;
63707;PMS5003;67643;-34.198;22.084;2023-04-06T21:58:22;9;5;
63707;PMS5003;67643;-34.198;22.084;2023-04-06T22:00:51;3;3;
63707;PMS5003;67643;-34.198;22.084;2023-04-06T22:03:19;5;4;
63707;PMS5003;67643;-34.198;22.084;2023-04-06T22:05:48;6;5;
63707;PMS5003;67643;-34.198;22.084;2023-04-06T22:08:16;6;4;
63707;PMS5003;67643;-34.198;22.084;2023-04-06T22:10:45;6;5;
63707;PMS5003;67643;-34.198;22.084;2023-04-06T22:13:13;14;7;
63707;PMS5003;67643;-34.198;22.084;2023-04-06T22:15:41;6;6;
63707;PMS5003;67643;-34.198;22.084;2023-04-06T22:18:10;11;5;
63707;PMS5003;67643;-34.198;22.084;2023-04-06T22:20:39;9;7;
63707;PMS5003;67643;-34.198;22.084;2023-04-06T22:23:08;12;7;
63707;PMS5003;67643;-34.198;22.084;2023-04-06T22:25:38;9;7;
63707;PMS5003;67643;-34.198;22.084;2023-04-06T22:28:06;9;7;
63707;PMS5003;67643;-34.198;22.084;2023-04-06T22:30:35;12;8;
63707;PMS5003;67643;-34.198;22.084;2023-04-06T22:33:04;11;9;
63707;PMS5003;67643;-34.198;22.084;2023-04-06T22:35:32;15;9;
63707;PMS5003;67643;-34.198;22.084;2023-04-06T22:38:00;8;7;
63707;PMS5003;67643;-34.198;22.084;2023-04-06T22:40:29;11;10;
63707;PMS5003;67643;-34.198;22.084;2023-04-06T22:42:58;9;7;
63707;PMS5003;67643;-34.198;22.084;2023-04-06T22:45:26;16;8;
63707;PMS5003;67643;-34.198;22.084;2023-04-06T22:47:54;10;8;
63707;PMS5003;67643;-34.198;22.084;2023-04-06T22:50:23;11;7;
63707;PMS5003;67643;-34.198;22.084;2023-04-06T22:52:51;14;9;